sensor_id;sensor_type;location;lat;lon;timestamp;temperature;humidity
37910;DHT22;23741;49.446;8.754;2022-11-30T00:01:15;12.20;71.20
37910;DHT22;23741;49.446;8.754;2022-11-30T00:03:16;12.20;71.20
37910;DHT22;23741;49.446;8.754;2022-11-30T00:05:18;12.20;71.20
37910;DHT22;23741;49.446;8.754;2022-11-30T00:07:21;12.20;71.20
37910;DHT22;23741;49.446;8.754;2022-11-30T00:09:22;12.20;71.10
37910;DHT22;23741;49.446;8.754;2022-11-30T00:11:25;12.20;71.10
37910;DHT22;23741;49.446;8.754;2022-11-30T00:13:27;12.30;71.10
37910;DHT22;23741;49.446;8.754;2022-11-30T00:15:29;12.30;71.00
37910;DHT22;23741;49.446;8.754;2022-11-30T00:17:30;12.20;70.90
37910;DHT22;23741;49.446;8.754;2022-11-30T00:19:32;12.20;70.90
37910;DHT22;23741;49.446;8.754;2022-11-30T00:21:33;12.20;70.90
37910;DHT22;23741;49.446;8.754;2022-11-30T00:23:36;12.20;70.90
37910;DHT22;23741;49.446;8.754;2022-11-30T00:25:38;12.20;71.00
37910;DHT22;23741;49.446;8.754;2022-11-30T00:27:40;12.20;71.20
37910;DHT22;23741;49.446;8.754;2022-11-30T00:29:41;12.20;71.20
37910;DHT22;23741;49.446;8.754;2022-11-30T00:31:43;12.20;71.20
37910;DHT22;23741;49.446;8.754;2022-11-30T00:33:45;12.20;71.30
37910;DHT22;23741;49.446;8.754;2022-11-30T00:35:54;12.30;71.30
37910;DHT22;23741;49.446;8.754;2022-11-30T00:37:56;12.20;71.10
37910;DHT22;23741;49.446;8.754;2022-11-30T00:39:57;12.30;71.10
37910;DHT22;23741;49.446;8.754;2022-11-30T00:41:59;12.20;71.00
37910;DHT22;23741;49.446;8.754;2022-11-30T00:44:01;12.20;71.10
37910;DHT22;23741;49.446;8.754;2022-11-30T00:46:02;12.20;71.40
37910;DHT22;23741;49.446;8.754;2022-11-30T00:48:04;12.20;71.50
37910;DHT22;23741;49.446;8.754;2022-11-30T00:50:06;12.20;71.40
37910;DHT22;23741;49.446;8.754;2022-11-30T00:52:08;12.20;71.50
37910;DHT22;23741;49.446;8.754;2022-11-30T00:54:09;12.20;71.50
37910;DHT22;23741;49.446;8.754;2022-11-30T00:56:12;12.20;72.20
37910;DHT22;23741;49.446;8.754;2022-11-30T00:58:13;12.20;71.50
37910;DHT22;23741;49.446;8.754;2022-11-30T01:00:15;12.20;71.40
37910;DHT22;23741;49.446;8.754;2022-11-30T01:02:17;12.20;71.30
37910;DHT22;23741;49.446;8.754;2022-11-30T01:04:19;12.20;71.30
37910;DHT22;23741;49.446;8.754;2022-11-30T01:06:21;12.30;71.30
37910;DHT22;23741;49.446;8.754;2022-11-30T01:08:22;12.20;71.20
37910;DHT22;23741;49.446;8.754;2022-11-30T01:10:26;12.30;71.20
37910;DHT22;23741;49.446;8.754;2022-11-30T01:12:27;12.20;71.20
37910;DHT22;23741;49.446;8.754;2022-11-30T01:14:29;12.20;71.10
37910;DHT22;23741;49.446;8.754;2022-11-30T01:16:31;12.20;71.10
37910;DHT22;23741;49.446;8.754;2022-11-30T01:18:34;12.20;71.20
37910;DHT22;23741;49.446;8.754;2022-11-30T01:20:42;12.30;71.40
37910;DHT22;23741;49.446;8.754;2022-11-30T01:22:44;12.20;71.20
37910;DHT22;23741;49.446;8.754;2022-11-30T01:24:45;12.30;71.20
37910;DHT22;23741;49.446;8.754;2022-11-30T01:26:48;12.20;71.10
37910;DHT22;23741;49.446;8.754;2022-11-30T01:28:53;12.20;71.10
37910;DHT22;23741;49.446;8.754;2022-11-30T01:30:55;12.20;71.10
37910;DHT22;23741;49.446;8.754;2022-11-30T01:33:01;12.20;71.10
37910;DHT22;23741;49.446;8.754;2022-11-30T01:35:03;12.20;71.10
37910;DHT22;23741;49.446;8.754;2022-11-30T01:37:05;12.20;71.10
37910;DHT22;23741;49.446;8.754;2022-11-30T01:39:07;12.20;71.10
37910;DHT22;23741;49.446;8.754;2022-11-30T01:41:11;12.20;71.20
37910;DHT22;23741;49.446;8.754;2022-11-30T01:43:13;12.20;71.50
37910;DHT22;23741;49.446;8.754;2022-11-30T01:45:14;12.20;71.50
37910;DHT22;23741;49.446;8.754;2022-11-30T01:47:17;12.20;71.70
37910;DHT22;23741;49.446;8.754;2022-11-30T01:49:29;12.20;71.70
37910;DHT22;23741;49.446;8.754;2022-11-30T01:51:33;12.20;71.60
37910;DHT22;23741;49.446;8.754;2022-11-30T01:53:36;12.20;71.60
37910;DHT22;23741;49.446;8.754;2022-11-30T01:55:41;12.20;71.70
37910;DHT22;23741;49.446;8.754;2022-11-30T01:59:50;12.30;72.50
37910;DHT22;23741;49.446;8.754;2022-11-30T02:01:53;12.30;71.60
37910;DHT22;23741;49.446;8.754;2022-11-30T02:03:59;12.30;71.50
37910;DHT22;23741;49.446;8.754;2022-11-30T02:06:02;12.30;71.40
37910;DHT22;23741;49.446;8.754;2022-11-30T02:08:04;12.30;71.40
37910;DHT22;23741;49.446;8.754;2022-11-30T02:10:11;12.30;71.30
37910;DHT22;23741;49.446;8.754;2022-11-30T02:12:17;12.30;71.20
37910;DHT22;23741;49.446;8.754;2022-11-30T02:14:31;12.30;71.40
37910;DHT22;23741;49.446;8.754;2022-11-30T02:21:15;12.30;71.50
37910;DHT22;23741;49.446;8.754;2022-11-30T02:23:29;12.30;71.50
37910;DHT22;23741;49.446;8.754;2022-11-30T02:25:53;12.30;71.50
37910;DHT22;23741;49.446;8.754;2022-11-30T02:32:16;12.30;71.40
37910;DHT22;23741;49.446;8.754;2022-11-30T02:34:21;12.30;71.30
37910;DHT22;23741;49.446;8.754;2022-11-30T02:36:26;12.20;71.20
37910;DHT22;23741;49.446;8.754;2022-11-30T02:38:28;12.30;71.20
37910;DHT22;23741;49.446;8.754;2022-11-30T02:40:30;12.20;71.20
37910;DHT22;23741;49.446;8.754;2022-11-30T02:42:32;12.20;71.30
37910;DHT22;23741;49.446;8.754;2022-11-30T02:44:33;12.20;71.30
37910;DHT22;23741;49.446;8.754;2022-11-30T02:46:40;12.20;71.20
37910;DHT22;23741;49.446;8.754;2022-11-30T02:48:48;12.20;71.20
37910;DHT22;23741;49.446;8.754;2022-11-30T02:50:51;12.20;71.20
37910;DHT22;23741;49.446;8.754;2022-11-30T02:52:54;12.20;71.20
37910;DHT22;23741;49.446;8.754;2022-11-30T02:55:00;12.20;71.20
37910;DHT22;23741;49.446;8.754;2022-11-30T02:57:02;12.20;71.20
37910;DHT22;23741;49.446;8.754;2022-11-30T02:59:04;12.20;71.30
37910;DHT22;23741;49.446;8.754;2022-11-30T03:01:06;12.20;71.40
37910;DHT22;23741;49.446;8.754;2022-11-30T03:03:07;12.20;71.40
37910;DHT22;23741;49.446;8.754;2022-11-30T03:05:09;12.20;71.30
37910;DHT22;23741;49.446;8.754;2022-11-30T03:07:11;12.20;71.30
37910;DHT22;23741;49.446;8.754;2022-11-30T03:09:12;12.20;71.30
37910;DHT22;23741;49.446;8.754;2022-11-30T03:11:14;12.20;71.20
37910;DHT22;23741;49.446;8.754;2022-11-30T03:13:16;12.20;71.40
37910;DHT22;23741;49.446;8.754;2022-11-30T03:15:17;12.20;71.40
37910;DHT22;23741;49.446;8.754;2022-11-30T03:17:19;12.20;71.40
37910;DHT22;23741;49.446;8.754;2022-11-30T03:19:21;12.20;71.40
37910;DHT22;23741;49.446;8.754;2022-11-30T03:21:22;12.20;71.40
37910;DHT22;23741;49.446;8.754;2022-11-30T03:23:24;12.20;71.40
37910;DHT22;23741;49.446;8.754;2022-11-30T03:25:26;12.20;71.40
37910;DHT22;23741;49.446;8.754;2022-11-30T03:27:28;12.20;71.40
37910;DHT22;23741;49.446;8.754;2022-11-30T03:29:29;12.20;71.40
37910;DHT22;23741;49.446;8.754;2022-11-30T03:31:31;12.20;71.40
37910;DHT22;23741;49.446;8.754;2022-11-30T03:33:33;12.20;71.40
37910;DHT22;23741;49.446;8.754;2022-11-30T03:35:34;12.20;71.40
37910;DHT22;23741;49.446;8.754;2022-11-30T03:37:36;12.20;71.40
37910;DHT22;23741;49.446;8.754;2022-11-30T03:39:38;12.20;71.40
37910;DHT22;23741;49.446;8.754;2022-11-30T03:41:39;12.20;71.40
37910;DHT22;23741;49.446;8.754;2022-11-30T03:43:42;12.20;71.30
37910;DHT22;23741;49.446;8.754;2022-11-30T03:45:44;12.20;71.40
37910;DHT22;23741;49.446;8.754;2022-11-30T03:47:45;12.20;71.60
37910;DHT22;23741;49.446;8.754;2022-11-30T03:49:47;12.20;71.40
37910;DHT22;23741;49.446;8.754;2022-11-30T03:51:49;12.20;71.40
37910;DHT22;23741;49.446;8.754;2022-11-30T03:53:50;12.20;71.40
37910;DHT22;23741;49.446;8.754;2022-11-30T03:55:57;12.20;71.40
37910;DHT22;23741;49.446;8.754;2022-11-30T03:57:59;12.20;71.40
37910;DHT22;23741;49.446;8.754;2022-11-30T04:00:00;12.20;71.50
37910;DHT22;23741;49.446;8.754;2022-11-30T04:02:12;12.20;71.50
37910;DHT22;23741;49.446;8.754;2022-11-30T04:04:14;12.20;71.50
37910;DHT22;23741;49.446;8.754;2022-11-30T04:06:15;12.20;71.50
37910;DHT22;23741;49.446;8.754;2022-11-30T04:08:18;12.20;71.60
37910;DHT22;23741;49.446;8.754;2022-11-30T04:10:19;12.20;71.60
37910;DHT22;23741;49.446;8.754;2022-11-30T04:12:21;12.20;71.50
37910;DHT22;23741;49.446;8.754;2022-11-30T04:14:26;12.20;71.60
37910;DHT22;23741;49.446;8.754;2022-11-30T04:16:27;12.20;71.60
37910;DHT22;23741;49.446;8.754;2022-11-30T04:18:30;12.20;71.60
37910;DHT22;23741;49.446;8.754;2022-11-30T04:20:32;12.20;71.60
37910;DHT22;23741;49.446;8.754;2022-11-30T04:22:40;12.20;71.60
37910;DHT22;23741;49.446;8.754;2022-11-30T04:24:42;12.20;71.70
37910;DHT22;23741;49.446;8.754;2022-11-30T04:26:43;12.20;71.60
37910;DHT22;23741;49.446;8.754;2022-11-30T04:28:46;12.20;71.60
37910;DHT22;23741;49.446;8.754;2022-11-30T04:30:48;12.20;71.60
37910;DHT22;23741;49.446;8.754;2022-11-30T04:32:49;12.20;71.60
37910;DHT22;23741;49.446;8.754;2022-11-30T04:34:51;12.20;71.60
37910;DHT22;23741;49.446;8.754;2022-11-30T04:36:53;12.20;71.70
37910;DHT22;23741;49.446;8.754;2022-11-30T04:39:00;12.30;71.80
37910;DHT22;23741;49.446;8.754;2022-11-30T04:41:06;12.20;71.80
37910;DHT22;23741;49.446;8.754;2022-11-30T04:43:08;12.30;71.80
37910;DHT22;23741;49.446;8.754;2022-11-30T04:45:11;12.20;71.80
37910;DHT22;23741;49.446;8.754;2022-11-30T04:47:12;12.30;71.80
37910;DHT22;23741;49.446;8.754;2022-11-30T04:49:14;12.30;71.80
37910;DHT22;23741;49.446;8.754;2022-11-30T04:51:16;12.30;71.80
37910;DHT22;23741;49.446;8.754;2022-11-30T04:53:17;12.30;71.90
37910;DHT22;23741;49.446;8.754;2022-11-30T04:55:19;12.30;71.90
37910;DHT22;23741;49.446;8.754;2022-11-30T04:57:21;12.30;71.90
37910;DHT22;23741;49.446;8.754;2022-11-30T04:59:23;12.30;71.90
37910;DHT22;23741;49.446;8.754;2022-11-30T05:01:24;12.30;71.80
37910;DHT22;23741;49.446;8.754;2022-11-30T05:03:26;12.30;71.80
37910;DHT22;23741;49.446;8.754;2022-11-30T05:05:31;12.30;71.90
37910;DHT22;23741;49.446;8.754;2022-11-30T05:07:33;12.30;71.90
37910;DHT22;23741;49.446;8.754;2022-11-30T05:09:34;12.30;72.00
37910;DHT22;23741;49.446;8.754;2022-11-30T05:11:36;12.30;72.00
37910;DHT22;23741;49.446;8.754;2022-11-30T05:13:40;12.30;72.00
37910;DHT22;23741;49.446;8.754;2022-11-30T05:15:42;12.30;72.00
37910;DHT22;23741;49.446;8.754;2022-11-30T05:17:43;12.30;72.00
37910;DHT22;23741;49.446;8.754;2022-11-30T05:19:45;12.30;71.90
37910;DHT22;23741;49.446;8.754;2022-11-30T05:21:47;12.30;72.00
37910;DHT22;23741;49.446;8.754;2022-11-30T05:23:48;12.30;72.00
37910;DHT22;23741;49.446;8.754;2022-11-30T05:25:52;12.30;72.00
37910;DHT22;23741;49.446;8.754;2022-11-30T05:27:53;12.30;72.00
37910;DHT22;23741;49.446;8.754;2022-11-30T05:29:55;12.30;72.00
37910;DHT22;23741;49.446;8.754;2022-11-30T05:31:57;12.40;72.10
37910;DHT22;23741;49.446;8.754;2022-11-30T05:33:58;12.30;72.10
37910;DHT22;23741;49.446;8.754;2022-11-30T05:36:00;12.40;72.10
37910;DHT22;23741;49.446;8.754;2022-11-30T05:38:07;12.40;72.10
37910;DHT22;23741;49.446;8.754;2022-11-30T05:40:09;12.40;72.10
37910;DHT22;23741;49.446;8.754;2022-11-30T05:42:11;12.40;72.20
37910;DHT22;23741;49.446;8.754;2022-11-30T05:44:12;12.40;72.20
37910;DHT22;23741;49.446;8.754;2022-11-30T05:46:15;12.40;72.10
37910;DHT22;23741;49.446;8.754;2022-11-30T05:48:17;12.50;72.10
37910;DHT22;23741;49.446;8.754;2022-11-30T05:50:19;12.50;72.10
37910;DHT22;23741;49.446;8.754;2022-11-30T05:52:24;12.50;72.10
37910;DHT22;23741;49.446;8.754;2022-11-30T05:54:26;12.50;72.00
37910;DHT22;23741;49.446;8.754;2022-11-30T05:56:28;12.50;72.00
37910;DHT22;23741;49.446;8.754;2022-11-30T05:58:29;12.50;71.90
37910;DHT22;23741;49.446;8.754;2022-11-30T06:00:31;12.50;71.90
37910;DHT22;23741;49.446;8.754;2022-11-30T06:02:33;12.50;71.90
37910;DHT22;23741;49.446;8.754;2022-11-30T06:04:35;12.50;71.80
37910;DHT22;23741;49.446;8.754;2022-11-30T06:06:36;12.50;71.90
37910;DHT22;23741;49.446;8.754;2022-11-30T06:08:38;12.50;71.80
37910;DHT22;23741;49.446;8.754;2022-11-30T06:10:40;12.40;71.60
37910;DHT22;23741;49.446;8.754;2022-11-30T06:12:41;12.50;71.70
37910;DHT22;23741;49.446;8.754;2022-11-30T06:14:43;12.40;71.70
37910;DHT22;23741;49.446;8.754;2022-11-30T06:16:45;12.40;71.70
37910;DHT22;23741;49.446;8.754;2022-11-30T06:18:47;12.40;71.60
37910;DHT22;23741;49.446;8.754;2022-11-30T06:20:49;12.40;71.60
37910;DHT22;23741;49.446;8.754;2022-11-30T06:22:50;12.40;71.60
37910;DHT22;23741;49.446;8.754;2022-11-30T06:24:52;12.40;71.70
37910;DHT22;23741;49.446;8.754;2022-11-30T06:26:54;12.40;71.80
37910;DHT22;23741;49.446;8.754;2022-11-30T06:28:55;12.40;71.80
37910;DHT22;23741;49.446;8.754;2022-11-30T06:30:58;12.40;71.80
37910;DHT22;23741;49.446;8.754;2022-11-30T06:33:00;12.40;71.80
37910;DHT22;23741;49.446;8.754;2022-11-30T06:35:01;12.40;71.80
37910;DHT22;23741;49.446;8.754;2022-11-30T06:37:03;12.40;71.70
37910;DHT22;23741;49.446;8.754;2022-11-30T06:39:05;12.40;71.70
37910;DHT22;23741;49.446;8.754;2022-11-30T06:41:07;12.40;71.70
37910;DHT22;23741;49.446;8.754;2022-11-30T06:43:09;12.40;71.70
37910;DHT22;23741;49.446;8.754;2022-11-30T06:45:11;12.40;71.80
37910;DHT22;23741;49.446;8.754;2022-11-30T06:47:13;12.40;71.80
37910;DHT22;23741;49.446;8.754;2022-11-30T06:49:14;12.40;71.80
37910;DHT22;23741;49.446;8.754;2022-11-30T06:51:17;12.40;71.80
37910;DHT22;23741;49.446;8.754;2022-11-30T06:53:18;12.40;71.80
37910;DHT22;23741;49.446;8.754;2022-11-30T06:55:20;12.40;71.80
37910;DHT22;23741;49.446;8.754;2022-11-30T06:57:26;12.40;71.90
37910;DHT22;23741;49.446;8.754;2022-11-30T06:59:28;12.40;72.00
37910;DHT22;23741;49.446;8.754;2022-11-30T07:01:29;12.40;71.90
37910;DHT22;23741;49.446;8.754;2022-11-30T07:03:31;12.40;72.00
37910;DHT22;23741;49.446;8.754;2022-11-30T07:05:33;12.40;71.90
37910;DHT22;23741;49.446;8.754;2022-11-30T07:07:40;12.50;72.00
37910;DHT22;23741;49.446;8.754;2022-11-30T07:09:41;12.50;71.90
37910;DHT22;23741;49.446;8.754;2022-11-30T07:11:43;12.40;71.70
37910;DHT22;23741;49.446;8.754;2022-11-30T07:13:45;12.50;71.70
37910;DHT22;23741;49.446;8.754;2022-11-30T07:15:46;12.40;71.50
37910;DHT22;23741;49.446;8.754;2022-11-30T07:17:48;12.50;71.50
37910;DHT22;23741;49.446;8.754;2022-11-30T07:19:50;12.40;71.40
37910;DHT22;23741;49.446;8.754;2022-11-30T07:21:51;12.40;71.40
37910;DHT22;23741;49.446;8.754;2022-11-30T07:23:53;12.40;71.40
37910;DHT22;23741;49.446;8.754;2022-11-30T07:26:13;12.40;71.40
37910;DHT22;23741;49.446;8.754;2022-11-30T07:28:15;12.40;71.50
37910;DHT22;23741;49.446;8.754;2022-11-30T07:30:17;12.40;71.60
37910;DHT22;23741;49.446;8.754;2022-11-30T07:32:19;12.40;71.60
37910;DHT22;23741;49.446;8.754;2022-11-30T07:34:20;12.40;71.60
37910;DHT22;23741;49.446;8.754;2022-11-30T07:36:23;12.40;71.70
37910;DHT22;23741;49.446;8.754;2022-11-30T07:38:25;12.40;71.60
37910;DHT22;23741;49.446;8.754;2022-11-30T07:40:27;12.40;71.60
37910;DHT22;23741;49.446;8.754;2022-11-30T07:42:29;12.40;71.60
37910;DHT22;23741;49.446;8.754;2022-11-30T07:44:32;12.40;71.70
37910;DHT22;23741;49.446;8.754;2022-11-30T07:46:34;12.40;71.70
37910;DHT22;23741;49.446;8.754;2022-11-30T07:48:36;12.40;71.70
37910;DHT22;23741;49.446;8.754;2022-11-30T07:50:38;12.40;71.60
37910;DHT22;23741;49.446;8.754;2022-11-30T07:52:39;12.40;71.60
37910;DHT22;23741;49.446;8.754;2022-11-30T07:54:41;12.40;71.70
37910;DHT22;23741;49.446;8.754;2022-11-30T07:56:43;12.40;71.80
37910;DHT22;23741;49.446;8.754;2022-11-30T07:58:45;12.40;71.90
37910;DHT22;23741;49.446;8.754;2022-11-30T08:00:47;12.40;72.00
37910;DHT22;23741;49.446;8.754;2022-11-30T08:02:49;12.40;72.00
37910;DHT22;23741;49.446;8.754;2022-11-30T08:04:51;12.40;71.90
37910;DHT22;23741;49.446;8.754;2022-11-30T08:06:53;12.50;71.90
37910;DHT22;23741;49.446;8.754;2022-11-30T08:08:56;12.50;72.00
37910;DHT22;23741;49.446;8.754;2022-11-30T08:10:59;12.50;72.00
37910;DHT22;23741;49.446;8.754;2022-11-30T08:13:00;12.50;71.90
37910;DHT22;23741;49.446;8.754;2022-11-30T08:15:02;12.50;71.90
37910;DHT22;23741;49.446;8.754;2022-11-30T08:17:22;12.50;71.90
37910;DHT22;23741;49.446;8.754;2022-11-30T08:19:23;12.50;71.80
37910;DHT22;23741;49.446;8.754;2022-11-30T08:21:25;12.50;71.80
37910;DHT22;23741;49.446;8.754;2022-11-30T08:23:27;12.50;71.80
37910;DHT22;23741;49.446;8.754;2022-11-30T08:25:29;12.50;71.90
37910;DHT22;23741;49.446;8.754;2022-11-30T08:27:31;12.60;71.90
37910;DHT22;23741;49.446;8.754;2022-11-30T08:29:33;12.60;72.00
37910;DHT22;23741;49.446;8.754;2022-11-30T08:31:35;12.60;72.00
37910;DHT22;23741;49.446;8.754;2022-11-30T08:33:37;12.60;72.00
37910;DHT22;23741;49.446;8.754;2022-11-30T08:35:39;12.60;71.80
37910;DHT22;23741;49.446;8.754;2022-11-30T08:37:41;12.60;71.80
37910;DHT22;23741;49.446;8.754;2022-11-30T08:39:43;12.60;71.70
37910;DHT22;23741;49.446;8.754;2022-11-30T08:41:44;12.70;71.70
37910;DHT22;23741;49.446;8.754;2022-11-30T08:43:46;12.60;71.60
37910;DHT22;23741;49.446;8.754;2022-11-30T08:45:48;12.60;71.50
37910;DHT22;23741;49.446;8.754;2022-11-30T08:47:57;12.70;71.70
37910;DHT22;23741;49.446;8.754;2022-11-30T08:49:59;12.70;71.60
37910;DHT22;23741;49.446;8.754;2022-11-30T08:52:02;12.70;71.50
37910;DHT22;23741;49.446;8.754;2022-11-30T08:54:19;12.70;71.50
37910;DHT22;23741;49.446;8.754;2022-11-30T08:56:21;12.70;71.40
37910;DHT22;23741;49.446;8.754;2022-11-30T08:58:26;12.70;71.40
37910;DHT22;23741;49.446;8.754;2022-11-30T09:00:29;12.70;71.50
37910;DHT22;23741;49.446;8.754;2022-11-30T09:02:31;12.70;71.40
37910;DHT22;23741;49.446;8.754;2022-11-30T09:04:35;12.70;71.40
37910;DHT22;23741;49.446;8.754;2022-11-30T09:06:37;12.70;71.40
37910;DHT22;23741;49.446;8.754;2022-11-30T09:08:39;12.80;71.50
37910;DHT22;23741;49.446;8.754;2022-11-30T09:10:41;12.80;71.40
37910;DHT22;23741;49.446;8.754;2022-11-30T09:12:43;12.80;71.40
37910;DHT22;23741;49.446;8.754;2022-11-30T09:14:46;12.80;71.40
37910;DHT22;23741;49.446;8.754;2022-11-30T09:16:56;12.80;71.40
37910;DHT22;23741;49.446;8.754;2022-11-30T09:18:58;12.80;71.30
37910;DHT22;23741;49.446;8.754;2022-11-30T09:21:02;12.80;71.30
37910;DHT22;23741;49.446;8.754;2022-11-30T09:23:04;12.80;71.30
37910;DHT22;23741;49.446;8.754;2022-11-30T09:25:06;12.80;71.20
37910;DHT22;23741;49.446;8.754;2022-11-30T09:27:08;12.80;71.20
37910;DHT22;23741;49.446;8.754;2022-11-30T09:29:10;12.80;71.10
37910;DHT22;23741;49.446;8.754;2022-11-30T09:31:13;12.90;71.20
37910;DHT22;23741;49.446;8.754;2022-11-30T09:33:15;12.90;71.20
37910;DHT22;23741;49.446;8.754;2022-11-30T09:35:17;12.80;71.20
37910;DHT22;23741;49.446;8.754;2022-11-30T09:37:19;12.90;71.10
37910;DHT22;23741;49.446;8.754;2022-11-30T09:39:20;12.90;71.10
37910;DHT22;23741;49.446;8.754;2022-11-30T09:45:57;12.90;71.00
37910;DHT22;23741;49.446;8.754;2022-11-30T09:48:08;12.90;71.10
37910;DHT22;23741;49.446;8.754;2022-11-30T09:50:17;12.90;71.00
37910;DHT22;23741;49.446;8.754;2022-11-30T09:52:23;12.90;71.00
37910;DHT22;23741;49.446;8.754;2022-11-30T09:54:30;12.90;71.00
37910;DHT22;23741;49.446;8.754;2022-11-30T09:56:38;12.90;71.00
37910;DHT22;23741;49.446;8.754;2022-11-30T09:58:45;13.00;71.10
37910;DHT22;23741;49.446;8.754;2022-11-30T10:00:48;13.00;71.10
37910;DHT22;23741;49.446;8.754;2022-11-30T10:02:51;13.00;71.10
37910;DHT22;23741;49.446;8.754;2022-11-30T10:04:53;13.00;71.10
37910;DHT22;23741;49.446;8.754;2022-11-30T10:17:54;13.00;71.00
37910;DHT22;23741;49.446;8.754;2022-11-30T10:20:05;13.00;70.90
37910;DHT22;23741;49.446;8.754;2022-11-30T10:24:30;13.00;70.60
37910;DHT22;23741;49.446;8.754;2022-11-30T10:26:35;13.00;70.70
37910;DHT22;23741;49.446;8.754;2022-11-30T10:28:48;13.00;70.80
37910;DHT22;23741;49.446;8.754;2022-11-30T10:30:52;13.00;70.80
37910;DHT22;23741;49.446;8.754;2022-11-30T10:32:55;13.00;70.80
37910;DHT22;23741;49.446;8.754;2022-11-30T10:35:00;13.00;70.80
37910;DHT22;23741;49.446;8.754;2022-11-30T10:39:35;13.10;70.90
37910;DHT22;23741;49.446;8.754;2022-11-30T10:41:42;13.10;71.10
37910;DHT22;23741;49.446;8.754;2022-11-30T10:43:57;13.10;71.10
37910;DHT22;23741;49.446;8.754;2022-11-30T10:46:00;13.10;71.10
37910;DHT22;23741;49.446;8.754;2022-11-30T10:50:24;13.10;71.20
37910;DHT22;23741;49.446;8.754;2022-11-30T10:52:29;13.10;71.10
37910;DHT22;23741;49.446;8.754;2022-11-30T10:54:32;13.20;71.20
37910;DHT22;23741;49.446;8.754;2022-11-30T10:56:35;13.20;71.10
37910;DHT22;23741;49.446;8.754;2022-11-30T10:58:38;13.20;71.00
37910;DHT22;23741;49.446;8.754;2022-11-30T11:00:43;13.30;71.00
37910;DHT22;23741;49.446;8.754;2022-11-30T11:02:47;13.20;71.00
37910;DHT22;23741;49.446;8.754;2022-11-30T11:04:59;13.30;71.00
37910;DHT22;23741;49.446;8.754;2022-11-30T11:07:08;13.30;70.90
37910;DHT22;23741;49.446;8.754;2022-11-30T11:11:31;13.30;70.80
37910;DHT22;23741;49.446;8.754;2022-11-30T11:13:38;13.40;70.80
37910;DHT22;23741;49.446;8.754;2022-11-30T11:15:41;13.40;70.80
37910;DHT22;23741;49.446;8.754;2022-11-30T11:18:18;13.40;70.80
37910;DHT22;23741;49.446;8.754;2022-11-30T11:20:33;13.40;70.80
37910;DHT22;23741;49.446;8.754;2022-11-30T11:22:36;13.40;70.70
37910;DHT22;23741;49.446;8.754;2022-11-30T11:24:37;13.50;70.80
37910;DHT22;23741;49.446;8.754;2022-11-30T11:26:39;13.50;70.80
37910;DHT22;23741;49.446;8.754;2022-11-30T11:28:49;13.50;70.80
37910;DHT22;23741;49.446;8.754;2022-11-30T11:30:52;13.50;70.80
37910;DHT22;23741;49.446;8.754;2022-11-30T11:32:56;13.60;70.80
37910;DHT22;23741;49.446;8.754;2022-11-30T11:34:58;13.60;70.60
37910;DHT22;23741;49.446;8.754;2022-11-30T11:37:04;13.60;70.50
37910;DHT22;23741;49.446;8.754;2022-11-30T11:39:23;13.70;70.40
37910;DHT22;23741;49.446;8.754;2022-11-30T11:41:26;13.70;70.20
37910;DHT22;23741;49.446;8.754;2022-11-30T11:43:32;13.70;70.00
37910;DHT22;23741;49.446;8.754;2022-11-30T11:45:36;13.70;69.80
37910;DHT22;23741;49.446;8.754;2022-11-30T11:47:38;13.70;69.90
37910;DHT22;23741;49.446;8.754;2022-11-30T11:49:40;13.70;69.90
37910;DHT22;23741;49.446;8.754;2022-11-30T11:51:42;13.70;69.90
37910;DHT22;23741;49.446;8.754;2022-11-30T11:56:02;13.70;69.90
37910;DHT22;23741;49.446;8.754;2022-11-30T11:58:07;13.70;70.70
37910;DHT22;23741;49.446;8.754;2022-11-30T12:00:15;13.70;69.80
37910;DHT22;23741;49.446;8.754;2022-11-30T12:02:37;13.70;69.70
37910;DHT22;23741;49.446;8.754;2022-11-30T12:04:47;13.70;69.80
37910;DHT22;23741;49.446;8.754;2022-11-30T12:06:50;13.70;69.80
37910;DHT22;23741;49.446;8.754;2022-11-30T12:08:54;13.70;69.80
37910;DHT22;23741;49.446;8.754;2022-11-30T12:10:59;13.80;69.80
37910;DHT22;23741;49.446;8.754;2022-11-30T12:13:04;13.80;69.80
37910;DHT22;23741;49.446;8.754;2022-11-30T12:15:09;13.80;69.80
37910;DHT22;23741;49.446;8.754;2022-11-30T12:22:00;13.80;69.80
37910;DHT22;23741;49.446;8.754;2022-11-30T12:30:23;13.80;69.50
37910;DHT22;23741;49.446;8.754;2022-11-30T12:43:38;13.80;69.30
37910;DHT22;23741;49.446;8.754;2022-11-30T12:45:42;13.80;69.30
37910;DHT22;23741;49.446;8.754;2022-11-30T12:58:15;13.70;68.90
37910;DHT22;23741;49.446;8.754;2022-11-30T13:00:20;13.70;69.70
37910;DHT22;23741;49.446;8.754;2022-11-30T13:06:39;13.60;68.90
37910;DHT22;23741;49.446;8.754;2022-11-30T13:08:44;13.60;68.90
37910;DHT22;23741;49.446;8.754;2022-11-30T13:10:48;13.60;68.80
37910;DHT22;23741;49.446;8.754;2022-11-30T13:12:52;13.60;68.80
37910;DHT22;23741;49.446;8.754;2022-11-30T13:14:57;13.60;68.80
37910;DHT22;23741;49.446;8.754;2022-11-30T13:17:01;13.60;68.90
37910;DHT22;23741;49.446;8.754;2022-11-30T13:19:14;13.60;68.90
37910;DHT22;23741;49.446;8.754;2022-11-30T13:21:28;13.60;68.70
37910;DHT22;23741;49.446;8.754;2022-11-30T13:25:39;13.60;68.80
37910;DHT22;23741;49.446;8.754;2022-11-30T13:28:06;13.60;68.80
37910;DHT22;23741;49.446;8.754;2022-11-30T13:32:32;13.60;69.00
37910;DHT22;23741;49.446;8.754;2022-11-30T13:35:16;13.60;68.80
37910;DHT22;23741;49.446;8.754;2022-11-30T13:37:17;13.60;68.80
37910;DHT22;23741;49.446;8.754;2022-11-30T13:39:26;13.60;68.80
37910;DHT22;23741;49.446;8.754;2022-11-30T13:41:29;13.60;68.80
37910;DHT22;23741;49.446;8.754;2022-11-30T13:43:42;13.60;68.80
37910;DHT22;23741;49.446;8.754;2022-11-30T13:45:45;13.60;68.80
37910;DHT22;23741;49.446;8.754;2022-11-30T13:47:48;13.60;68.50
37910;DHT22;23741;49.446;8.754;2022-11-30T13:49:54;13.60;68.50
37910;DHT22;23741;49.446;8.754;2022-11-30T13:51:56;13.60;68.60
37910;DHT22;23741;49.446;8.754;2022-11-30T13:56:39;13.50;68.70
37910;DHT22;23741;49.446;8.754;2022-11-30T14:05:24;13.50;68.70
37910;DHT22;23741;49.446;8.754;2022-11-30T14:07:34;13.50;68.70
37910;DHT22;23741;49.446;8.754;2022-11-30T14:11:39;13.50;68.80
37910;DHT22;23741;49.446;8.754;2022-11-30T14:13:41;13.50;68.80
37910;DHT22;23741;49.446;8.754;2022-11-30T14:17:46;13.50;68.80
37910;DHT22;23741;49.446;8.754;2022-11-30T14:19:49;13.50;68.60
37910;DHT22;23741;49.446;8.754;2022-11-30T14:21:51;13.50;68.60
37910;DHT22;23741;49.446;8.754;2022-11-30T14:26:03;13.50;68.40
37910;DHT22;23741;49.446;8.754;2022-11-30T14:28:12;13.50;68.40
37910;DHT22;23741;49.446;8.754;2022-11-30T14:30:20;13.50;68.40
37910;DHT22;23741;49.446;8.754;2022-11-30T14:32:41;13.50;68.60
37910;DHT22;23741;49.446;8.754;2022-11-30T14:34:51;13.40;68.40
37910;DHT22;23741;49.446;8.754;2022-11-30T14:39:30;13.50;68.50